Time;durP1;ratioP1;P1;durP2;ratioP2;P2;SDS_P1;SDS_P2;PMS_P1;PMS_P2;Temp;Humidity;BMP_temperature;BMP_pressure;BME280_temperature;BME280_humidity;BME280_pressure;Samples;Min_cycle;Max_cycle;Signal;HPM_P1;HPM_P2
2022/01/24 00:00:27;;;;;;;22.05;12.75;;;;;;;3.16;76.96;102972.91;1752264;81;21892;-86
2022/01/24 00:02:55;;;;;;;21.25;13.08;;;;;;;3.16;76.96;102974.20;1751844;81;21049;-85
2022/01/24 00:05:23;;;;;;;20.62;12.18;;;;;;;3.16;76.98;102978.11;1752182;81;21017;-86
2022/01/24 00:07:52;;;;;;;18.00;11.25;;;;;;;3.16;76.95;102974.20;1751961;81;21050;-86
2022/01/24 00:10:23;;;;;;;20.05;12.07;;;;;;;3.16;77.02;102966.40;1752075;81;21482;-86
2022/01/24 00:13:06;;;;;;;18.25;11.00;;;;;;;3.19;77.09;102970.95;1753595;80;22517;-85
2022/01/24 00:18:03;;;;;;;18.90;11.28;;;;;;;3.20;77.03;102969.80;1745214;82;21044;-85
2022/01/24 00:28:20;;;;;;;16.27;10.63;;;;;;;3.23;77.09;102970.09;1745963;82;21503;-84
2022/01/24 00:30:45;;;;;;;16.97;10.68;;;;;;;3.22;77.06;102963.03;1740238;80;21189;-85
2022/01/24 00:33:18;;;;;;;14.85;9.35;;;;;;;3.21;77.09;102964.19;1751909;81;21041;-85
2022/01/24 00:35:51;;;;;;;12.95;9.18;;;;;;;3.18;77.06;102966.14;1723317;81;21096;-85
2022/01/24 00:38:15;;;;;;;14.45;9.00;;;;;;;3.18;77.08;102966.55;1751406;81;22593;-86
2022/01/24 00:40:45;;;;;;;12.80;8.10;;;;;;;3.17;77.08;102969.91;1752060;81;21013;-85
2022/01/24 00:43:23;;;;;;;13.03;8.38;;;;;;;3.16;77.12;102970.70;1752095;81;21033;-85
2022/01/24 00:48:57;;;;;;;13.83;8.90;;;;;;;3.13;77.19;102964.80;1752152;81;21052;-86
2022/01/24 00:56:15;;;;;;;14.23;8.55;;;;;;;3.12;77.27;102972.11;1773071;80;21110;-84
2022/01/24 00:58:46;;;;;;;13.70;8.35;;;;;;;3.09;77.28;102974.02;1760207;81;21550;-84
2022/01/24 01:01:11;;;;;;;11.78;8.25;;;;;;;3.09;77.31;102968.81;1760032;80;21062;-84
2022/01/24 01:03:39;;;;;;;14.05;8.60;;;;;;;3.09;77.35;102966.61;1759204;81;21081;-84
2022/01/24 01:06:11;;;;;;;14.45;8.80;;;;;;;3.11;77.43;102960.76;1759971;81;21124;-85
2022/01/24 01:19:48;;;;;;;15.63;8.43;;;;;;;3.08;77.47;102981.31;1759803;81;21534;-85
2022/01/24 01:22:15;;;;;;;16.05;8.38;;;;;;;3.09;77.48;102982.22;1760317;81;21032;-85
2022/01/24 01:24:49;;;;;;;13.05;8.35;;;;;;;3.11;77.54;102981.97;1760413;81;21020;-85
2022/01/24 01:27:19;;;;;;;13.15;8.75;;;;;;;3.11;77.52;102980.27;1746425;80;21102;-85
2022/01/24 01:29:53;;;;;;;15.53;9.60;;;;;;;3.14;77.53;102978.36;1758604;81;22274;-85
2022/01/24 01:35:04;;;;;;;13.78;8.45;;;;;;;3.19;77.53;102991.41;1760208;81;21537;-87
2022/01/24 01:55:53;;;;;;;11.78;7.58;;;;;;;3.21;77.41;102977.20;1760415;81;21336;-85
2022/01/24 01:58:22;;;;;;;10.78;6.62;;;;;;;3.19;77.38;102974.86;1759924;80;21591;-85
2022/01/24 02:00:55;;;;;;;12.68;7.92;;;;;;;3.14;77.34;102970.55;1760511;81;21765;-85
2022/01/24 02:03:25;;;;;;;9.75;6.90;;;;;;;3.14;77.43;102970.55;1760057;81;21074;-85
2022/01/24 02:05:50;;;;;;;8.75;6.67;;;;;;;3.15;77.44;102966.25;1760408;80;21079;-84
2022/01/24 02:08:18;;;;;;;9.88;6.53;;;;;;;3.11;77.33;102957.25;1760118;81;21723;-84
2022/01/24 02:10:47;;;;;;;12.47;7.72;;;;;;;3.04;77.30;102954.86;1760018;81;21564;-84
2022/01/24 02:13:14;;;;;;;11.35;7.28;;;;;;;3.02;77.35;102951.20;1767185;81;21072;-84
2022/01/24 02:18:32;;;;;;;15.63;8.40;;;;;;;3.01;77.49;102952.00;1791666;79;21118;-84
2022/01/24 02:21:08;;;;;;;12.50;7.62;;;;;;;2.99;77.45;102956.16;1707359;82;21062;-85
2022/01/24 02:25:58;;;;;;;12.63;7.33;;;;;;;2.98;77.56;102954.31;1791715;80;21530;-84
2022/01/24 02:28:28;;;;;;;14.78;7.22;;;;;;;2.98;77.59;102951.31;1791689;80;21081;-85
2022/01/24 02:31:18;;;;;;;11.10;7.08;;;;;;;3.00;77.62;102948.86;1735550;82;21046;-84
2022/01/24 02:33:25;;;;;;;13.40;6.97;;;;;;;3.00;77.66;102943.26;1787997;79;21787;-85
2022/01/24 02:35:52;;;;;;;13.22;7.03;;;;;;;3.00;77.60;102938.05;1791813;80;21056;-85
2022/01/24 02:49:13;;;;;;;10.95;6.92;;;;;;;2.93;77.71;102917.48;1757394;81;21073;-85
2022/01/24 02:51:46;;;;;;;11.18;5.85;;;;;;;2.94;77.81;102917.09;1750742;81;21579;-85
2022/01/24 02:54:21;;;;;;;13.65;6.90;;;;;;;2.92;77.90;102920.85;1757492;80;21409;-85
2022/01/24 02:56:48;;;;;;;10.15;6.03;;;;;;;2.89;77.99;102906.25;1782834;79;21665;-84
2022/01/24 02:59:15;;;;;;;11.68;7.10;;;;;;;2.94;78.00;102906.69;1782733;80;21901;-86
2022/01/24 03:01:44;;;;;;;13.32;6.47;;;;;;;2.91;77.98;102911.23;1782825;80;21681;-86
2022/01/24 03:04:11;;;;;;;10.38;6.30;;;;;;;2.87;78.02;102911.34;1783182;80;21064;-85
2022/01/24 03:06:38;;;;;;;11.15;6.40;;;;;;;2.87;78.14;102907.80;1783139;80;21189;-85
2022/01/24 03:09:07;;;;;;;13.00;6.90;;;;;;;2.87;78.19;102910.41;1782849;80;21678;-86
2022/01/24 03:12:01;;;;;;;12.50;7.25;;;;;;;2.89;78.25;102912.75;1782839;80;21749;-86
2022/01/24 03:14:26;;;;;;;10.20;6.67;;;;;;;2.88;78.29;102914.84;1695196;83;21775;-86
2022/01/24 03:16:53;;;;;;;13.95;7.60;;;;;;;2.87;78.29;102917.84;1794114;79;21044;-85
2022/01/24 03:19:22;;;;;;;11.60;7.17;;;;;;;2.86;78.34;102916.00;1794061;79;21077;-86
2022/01/24 03:21:52;;;;;;;12.50;6.83;;;;;;;2.84;78.34;102911.05;1760389;79;21041;-86
2022/01/24 03:24:18;;;;;;;10.50;7.00;;;;;;;2.83;78.42;102907.91;1793861;79;21765;-85
2022/01/24 03:26:49;;;;;;;13.38;7.58;;;;;;;2.85;78.52;102895.05;1793659;79;21110;-85
2022/01/24 03:29:14;;;;;;;13.68;7.80;;;;;;;2.87;78.51;102894.80;1793586;79;21056;-85
2022/01/24 03:31:43;;;;;;;10.78;7.47;;;;;;;2.86;78.48;102900.80;1760157;79;21057;-84
2022/01/24 03:34:11;;;;;;;13.28;8.18;;;;;;;2.85;78.53;102901.19;1760287;79;22158;-82
2022/01/24 03:36:38;;;;;;;13.13;7.95;;;;;;;2.81;78.50;102894.25;1794203;79;21791;-85
2022/01/24 03:39:05;;;;;;;14.60;8.50;;;;;;;2.82;78.59;102898.30;1794191;78;21032;-84
2022/01/24 03:41:35;;;;;;;13.53;8.93;;;;;;;2.72;78.57;102888.75;1794538;79;21132;-84
2022/01/24 03:44:04;;;;;;;16.87;9.30;;;;;;;2.80;78.64;102901.16;1760242;79;21033;-84
2022/01/24 03:47:30;;;;;;;16.32;9.78;;;;;;;2.81;78.67;102903.36;1727268;81;21097;-85
2022/01/24 03:49:44;;;;;;;16.23;9.53;;;;;;;2.82;78.78;102895.70;1762507;80;21774;-83
2022/01/24 03:51:39;;;;;;;14.65;9.00;;;;;;;2.83;78.73;102902.70;1781674;80;21026;-84
2022/01/24 03:54:04;;;;;;;15.28;10.03;;;;;;;2.84;78.72;102903.65;1782331;80;21098;-85
2022/01/24 03:56:33;;;;;;;15.28;10.30;;;;;;;2.82;78.71;102908.70;1782835;80;21034;-84
2022/01/24 03:59:00;;;;;;;14.43;10.30;;;;;;;2.83;78.79;102908.31;1783230;80;21096;-84
2022/01/24 04:01:27;;;;;;;17.05;10.58;;;;;;;2.85;78.78;102905.45;1783089;80;21856;-84
2022/01/24 04:03:54;;;;;;;14.00;9.58;;;;;;;2.84;78.75;102906.25;1783229;80;21499;-85
2022/01/24 04:06:21;;;;;;;15.03;9.60;;;;;;;2.83;78.80;102908.31;1783305;80;21080;-86
2022/01/24 04:08:47;;;;;;;16.82;10.45;;;;;;;2.83;78.84;102908.31;1783350;79;21500;-86
2022/01/24 04:11:19;;;;;;;15.00;10.28;;;;;;;2.83;78.91;102910.91;1752646;80;21030;-86
2022/01/24 04:13:45;;;;;;;14.68;9.08;;;;;;;2.84;78.89;102903.25;1782985;80;21722;-86
2022/01/24 04:16:25;;;;;;;14.50;9.30;;;;;;;2.86;78.92;102904.70;1783350;80;21022;-85
2022/01/24 04:21:18;;;;;;;14.53;10.13;;;;;;;2.93;78.94;102903.18;1794585;79;21052;-85
2022/01/24 04:23:54;;;;;;;15.10;9.23;;;;;;;2.94;78.87;102901.09;1794629;78;21013;-85
2022/01/24 04:26:17;;;;;;;12.55;8.85;;;;;;;2.96;78.84;102899.53;1727752;82;21775;-85
2022/01/24 04:28:45;;;;;;;13.98;9.40;;;;;;;3.00;78.91;102898.13;1794510;78;21670;-85
2022/01/24 04:31:12;;;;;;;12.35;9.20;;;;;;;3.02;78.82;102893.97;1794497;79;21028;-85
2022/01/24 04:33:39;;;;;;;15.08;9.10;;;;;;;3.02;78.75;102887.10;1794545;79;21499;-86
2022/01/24 04:36:07;;;;;;;17.23;9.65;;;;;;;3.00;78.68;102891.22;1735587;79;21041;-85
2022/01/24 04:38:34;;;;;;;13.13;8.75;;;;;;;3.01;78.77;102890.86;1794615;79;21905;-85
2022/01/24 04:41:14;;;;;;;12.05;7.80;;;;;;;3.01;78.74;102891.77;1760771;79;22190;-81
2022/01/24 04:43:52;;;;;;;13.05;8.35;;;;;;;3.04;78.78;102892.05;1696319;83;21069;-85
2022/01/24 04:51:36;;;;;;;11.57;7.85;;;;;;;3.10;78.78;102885.19;1782732;80;23662;-85
2022/01/24 04:56:33;;;;;;;13.40;6.87;;;;;;;3.18;78.85;102878.96;1757097;81;21583;-77
2022/01/24 04:59:05;;;;;;;11.38;7.30;;;;;;;3.20;78.83;102882.61;1740248;81;22069;-79
2022/01/24 05:01:32;;;;;;;12.18;7.55;;;;;;;3.20;78.81;102878.70;1755550;81;21570;-77
2022/01/24 05:03:59;;;;;;;14.98;7.85;;;;;;;3.23;78.81;102878.05;1755631;81;22346;-78
2022/01/24 05:06:35;;;;;;;12.55;7.47;;;;;;;3.22;78.80;102887.56;1755140;81;21077;-77
2022/01/24 05:09:00;;;;;;;11.75;7.28;;;;;;;3.22;78.73;102891.47;1754659;81;21110;-77
2022/01/24 05:11:39;;;;;;;11.95;7.08;;;;;;;3.24;78.78;102889.00;1755857;81;21057;-78
2022/01/24 05:24:53;;;;;;;8.13;5.10;;;;;;;3.34;78.76;102894.63;1689556;81;21499;-76
2022/01/24 05:27:26;;;;;;;9.38;5.53;;;;;;;3.34;78.72;102890.36;1754801;81;21146;-75
2022/01/24 05:29:55;;;;;;;9.00;5.30;;;;;;;3.39;78.70;102889.45;1756128;81;21754;-75
2022/01/24 05:32:22;;;;;;;8.73;5.17;;;;;;;3.40;78.68;102889.59;1756079;81;21090;-79
2022/01/24 05:34:49;;;;;;;6.05;4.53;;;;;;;3.44;78.66;102889.48;1756186;81;21619;-74
2022/01/24 05:37:17;;;;;;;7.08;4.55;;;;;;;3.45;78.67;102888.69;1773535;80;21055;-78
2022/01/24 05:39:46;;;;;;;5.53;4.12;;;;;;;3.49;78.58;102892.08;1789178;79;21036;-77
2022/01/24 05:42:17;;;;;;;5.47;4.00;;;;;;;3.49;78.57;102894.31;1789202;79;21872;-78
2022/01/24 05:44:45;;;;;;;5.85;4.33;;;;;;;3.51;78.54;102897.06;1788368;79;21067;-77
2022/01/24 05:47:11;;;;;;;7.65;4.67;;;;;;;3.50;78.56;102893.52;1788340;79;21044;-77
2022/01/24 05:49:37;;;;;;;6.05;4.22;;;;;;;3.52;78.56;102893.66;1756470;80;21065;-78
2022/01/24 05:52:09;;;;;;;5.10;3.87;;;;;;;3.54;78.53;102892.09;1747045;81;21089;-75
2022/01/24 05:54:36;;;;;;;7.22;3.98;;;;;;;3.54;78.51;102897.30;1746036;81;21810;-78
2022/01/24 05:57:08;;;;;;;5.55;4.25;;;;;;;3.56;78.51;102883.13;1746084;81;21117;-79
2022/01/24 05:59:38;;;;;;;5.65;4.17;;;;;;;3.58;78.54;102887.67;1745853;81;22266;-79
2022/01/24 06:02:05;;;;;;;4.92;3.95;;;;;;;3.60;78.55;102888.72;1745769;81;21026;-80
2022/01/24 06:04:33;;;;;;;7.83;4.03;;;;;;;3.61;78.50;102887.95;1740445;82;22267;-79
2022/01/24 06:07:02;;;;;;;5.47;4.40;;;;;;;3.64;78.54;102894.75;1745425;81;21081;-79
2022/01/24 06:09:29;;;;;;;6.70;4.47;;;;;;;3.66;78.56;102885.38;1746086;82;21053;-79
2022/01/24 06:11:55;;;;;;;7.85;5.17;;;;;;;3.69;78.58;102886.02;1745775;81;21073;-78
2022/01/24 06:14:22;;;;;;;6.78;4.83;;;;;;;3.68;78.50;102886.42;1746159;81;21144;-78
2022/01/24 06:16:49;;;;;;;7.28;4.95;;;;;;;3.73;78.59;102890.70;1746197;81;21057;-78
2022/01/24 06:19:19;;;;;;;6.45;5.05;;;;;;;3.73;78.53;102890.70;1746182;81;21708;-79
2022/01/24 06:21:46;;;;;;;8.10;5.37;;;;;;;3.75;78.53;102893.05;1746045;81;21090;-78
2022/01/24 06:24:14;;;;;;;7.35;5.50;;;;;;;3.75;78.49;102892.15;1745413;81;21654;-79
2022/01/24 06:26:43;;;;;;;7.22;5.50;;;;;;;3.76;78.54;102890.09;1752679;80;21716;-78
2022/01/24 06:29:11;;;;;;;5.92;4.80;;;;;;;3.73;78.46;102890.70;1726854;83;21100;-79
2022/01/24 06:31:38;;;;;;;9.40;6.58;;;;;;;3.70;78.46;102890.06;1794044;78;22639;-78
2022/01/24 06:34:10;;;;;;;9.08;6.17;;;;;;;3.67;78.46;102892.78;1794060;78;21013;-79
2022/01/24 06:36:34;;;;;;;10.70;6.55;;;;;;;3.62;78.45;102887.56;1792728;79;21681;-78
2022/01/24 06:39:01;;;;;;;9.48;6.30;;;;;;;3.57;78.46;102892.78;1793865;79;21291;-79
2022/01/24 06:41:32;;;;;;;10.20;6.08;;;;;;;3.55;78.59;102891.70;1793628;78;21036;-78
2022/01/24 06:43:57;;;;;;;12.80;6.87;;;;;;;3.54;78.60;102892.09;1758508;80;22942;-78
2022/01/24 06:46:23;;;;;;;13.90;7.60;;;;;;;3.54;78.71;102893.40;1793988;78;21088;-79
2022/01/24 06:48:50;;;;;;;12.13;7.20;;;;;;;3.55;78.72;102897.84;1794053;78;21038;-79
2022/01/24 06:51:19;;;;;;;11.40;6.83;;;;;;;3.53;78.69;102902.38;1794259;79;21021;-79
2022/01/24 06:53:51;;;;;;;14.63;6.20;;;;;;;3.53;78.77;102907.22;1807999;79;21053;-78
2022/01/24 06:56:16;;;;;;;10.80;6.83;;;;;;;3.54;78.80;102903.81;1810785;78;23215;-78
2022/01/24 06:58:43;;;;;;;13.55;7.80;;;;;;;3.55;78.78;102898.21;1811033;79;21094;-80
2022/01/24 07:01:09;;;;;;;14.40;8.35;;;;;;;3.55;78.74;102903.05;1811099;79;21029;-78
2022/01/24 07:03:36;;;;;;;9.20;6.35;;;;;;;3.55;78.83;102900.45;1811388;79;21733;-79
2022/01/24 07:06:06;;;;;;;8.95;6.50;;;;;;;3.55;78.73;102900.45;1811297;79;21380;-79
2022/01/24 07:08:32;;;;;;;19.77;11.73;;;;;;;3.52;78.73;102893.66;1810902;77;21756;-79
2022/01/24 07:10:59;;;;;;;11.25;6.22;;;;;;;3.53;78.84;102898.47;1810978;79;21065;-79
2022/01/24 07:13:25;;;;;;;10.90;6.83;;;;;;;3.52;78.84;102901.47;1811163;79;21057;-79
2022/01/24 07:15:58;;;;;;;8.70;5.50;;;;;;;3.52;78.86;102912.28;1811173;79;21100;-79
2022/01/24 07:20:56;;;;;;;13.58;10.10;;;;;;;3.52;78.91;102907.98;1811215;79;21858;-79
2022/01/24 07:23:23;;;;;;;18.05;11.00;;;;;;;3.58;78.97;102912.81;1811128;79;21038;-79
2022/01/24 07:25:51;;;;;;;17.15;8.90;;;;;;;3.58;78.96;102903.70;1783340;79;22058;-79
2022/01/24 07:28:18;;;;;;;15.03;8.13;;;;;;;3.61;78.99;102897.47;1811288;79;21097;-79
2022/01/24 07:30:45;;;;;;;12.90;7.00;;;;;;;3.62;78.99;102895.01;1811326;79;21061;-79
2022/01/24 07:33:14;;;;;;;17.12;9.90;;;;;;;3.64;78.98;102892.14;1811235;79;22407;-79
2022/01/24 07:35:42;;;;;;;21.52;14.38;;;;;;;3.67;78.96;102896.69;1811486;79;21112;-79
2022/01/24 07:38:09;;;;;;;19.82;15.90;;;;;;;3.67;78.95;102892.39;1811423;79;21054;-79
2022/01/24 07:40:39;;;;;;;9.75;7.35;;;;;;;3.72;79.07;102887.97;1811551;78;21038;-79
2022/01/24 07:43:12;;;;;;;9.63;7.92;;;;;;;3.75;78.98;102885.64;1811193;79;21085;-79
2022/01/24 07:45:44;;;;;;;11.28;10.15;;;;;;;3.79;79.01;102889.02;1811823;79;21765;-79
2022/01/24 07:48:11;;;;;;;7.60;5.85;;;;;;;3.84;78.99;102892.95;1783811;79;22033;-79
2022/01/24 07:50:42;;;;;;;7.72;6.92;;;;;;;3.88;78.94;102892.03;1811685;79;21053;-79
2022/01/24 07:53:09;;;;;;;12.43;10.40;;;;;;;3.92;78.93;102887.09;1811248;79;21057;-79
2022/01/24 07:55:36;;;;;;;18.17;12.58;;;;;;;3.98;78.89;102895.06;1811577;78;21076;-79
2022/01/24 07:58:03;;;;;;;22.05;15.85;;;;;;;4.03;78.94;102887.23;1811152;79;21791;-79
2022/01/24 08:00:30;;;;;;;13.40;11.28;;;;;;;4.11;78.85;102882.70;1811561;78;21062;-79
2022/01/24 08:02:57;;;;;;;22.13;17.45;;;;;;;4.16;78.79;102891.80;1811949;79;21092;-79
2022/01/24 08:05:24;;;;;;;15.55;11.78;;;;;;;4.21;78.63;102890.91;1811918;79;21583;-79
2022/01/24 08:07:51;;;;;;;19.12;13.72;;;;;;;4.22;78.56;102887.50;1811816;79;21070;-79
2022/01/24 08:10:18;;;;;;;14.10;10.75;;;;;;;4.23;78.47;102891.95;1811711;79;22906;-79
2022/01/24 08:12:44;;;;;;;25.37;22.70;;;;;;;4.23;78.48;102886.73;1811632;79;21065;-79
2022/01/24 08:15:14;;;;;;;17.00;14.80;;;;;;;4.24;78.35;102888.55;1811464;78;21057;-79
2022/01/24 08:17:42;;;;;;;22.52;18.75;;;;;;;4.24;78.37;102886.88;1751623;81;21649;-79
2022/01/24 08:20:10;;;;;;;12.40;11.12;;;;;;;4.27;78.40;102887.51;1750714;81;21570;-79
2022/01/24 08:22:37;;;;;;;9.53;8.53;;;;;;;4.29;78.37;102885.94;1751297;81;21759;-79
2022/01/24 08:25:05;;;;;;;9.98;5.65;;;;;;;4.32;78.36;102884.91;1751341;81;21068;-79
2022/01/24 08:27:33;;;;;;;8.48;6.90;;;;;;;4.37;78.42;102890.50;1751424;81;21078;-79
2022/01/24 08:29:59;;;;;;;17.75;15.98;;;;;;;4.41;78.35;102885.69;1751276;81;21567;-79
2022/01/24 08:32:26;;;;;;;16.62;14.58;;;;;;;4.47;78.44;102873.56;1725095;81;21057;-79
2022/01/24 08:34:53;;;;;;;8.05;6.08;;;;;;;4.54;78.37;102873.26;1751293;81;21746;-79
2022/01/24 08:37:19;;;;;;;6.95;5.08;;;;;;;4.60;78.32;102875.50;1751085;81;21040;-79
2022/01/24 08:39:46;;;;;;;5.72;4.55;;;;;;;4.63;78.25;102866.60;1751413;81;21056;-79
2022/01/24 08:42:18;;;;;;;7.58;6.28;;;;;;;4.64;78.15;102873.26;1751439;81;21053;-79
2022/01/24 08:47:19;;;;;;;7.25;5.85;;;;;;;4.70;78.17;102875.86;1738092;82;21842;-79
2022/01/24 08:49:46;;;;;;;6.47;5.20;;;;;;;4.74;78.06;102876.23;1725158;83;21186;-79
2022/01/24 08:52:13;;;;;;;6.87;5.60;;;;;;;4.79;78.12;102872.72;1769804;81;21114;-79
2022/01/24 08:54:40;;;;;;;9.38;7.67;;;;;;;4.83;78.06;102877.39;1746159;80;21201;-79
2022/01/24 08:57:07;;;;;;;10.60;8.73;;;;;;;4.86;77.98;102874.64;1782996;80;21069;-79
2022/01/24 08:59:34;;;;;;;11.93;9.35;;;;;;;4.87;77.91;102862.50;1726478;83;21850;-79
2022/01/24 09:02:01;;;;;;;11.30;8.88;;;;;;;4.89;77.97;102863.94;1793614;79;21614;-79
2022/01/24 09:04:27;;;;;;;11.38;8.35;;;;;;;4.95;77.92;102864.43;1793725;78;21009;-79
2022/01/24 09:06:54;;;;;;;11.40;9.13;;;;;;;4.99;77.95;102858.30;1793935;78;21128;-79
2022/01/24 09:09:21;;;;;;;12.43;10.08;;;;;;;5.03;77.91;102864.65;1794158;78;21538;-79
2022/01/24 09:11:47;;;;;;;11.08;8.48;;;;;;;5.10;77.86;102863.46;1794002;78;21659;-79
2022/01/24 09:14:14;;;;;;;17.07;13.95;;;;;;;5.18;77.98;102863.67;1793694;79;21001;-79
2022/01/24 09:16:41;;;;;;;10.95;8.48;;;;;;;5.25;77.84;102865.62;1793705;78;21057;-79
2022/01/24 09:19:07;;;;;;;8.40;6.33;;;;;;;5.33;77.83;102868.86;1793758;79;21022;-79
2022/01/24 09:21:36;;;;;;;10.98;9.18;;;;;;;5.43;77.72;102865.27;1793656;79;21029;-79
2022/01/24 09:24:03;;;;;;;8.90;7.35;;;;;;;5.51;77.63;102867.19;1793761;78;23391;-79
2022/01/24 09:26:30;;;;;;;9.43;7.20;;;;;;;5.58;77.50;102871.70;1793848;79;21052;-79
2022/01/24 09:28:56;;;;;;;8.98;6.72;;;;;;;5.67;77.50;102866.68;1794460;79;21464;-79
2022/01/24 09:31:23;;;;;;;8.95;5.78;;;;;;;5.74;77.32;102869.89;1793931;78;21313;-79
2022/01/24 09:33:51;;;;;;;10.10;7.62;;;;;;;5.82;77.38;102870.52;1793968;78;21535;-79
2022/01/24 09:36:18;;;;;;;9.23;8.15;;;;;;;5.92;77.34;102861.29;1794028;78;21748;-79
2022/01/24 09:38:44;;;;;;;8.75;7.47;;;;;;;5.99;77.12;102858.40;1793889;79;21025;-79
2022/01/24 09:41:13;;;;;;;7.72;5.58;;;;;;;6.06;76.93;102853.63;1793811;79;21519;-79
2022/01/24 09:43:40;;;;;;;6.78;5.70;;;;;;;6.09;76.74;102853.88;1793669;79;21226;-79
2022/01/24 09:46:08;;;;;;;7.15;5.85;;;;;;;6.13;76.74;102855.53;1793886;78;21045;-79
2022/01/24 09:48:34;;;;;;;6.00;5.03;;;;;;;6.16;76.70;102860.11;1793801;78;21742;-79
2022/01/24 09:51:01;;;;;;;5.85;5.08;;;;;;;6.22;76.61;102857.54;1793603;79;21039;-79
2022/01/24 09:53:28;;;;;;;8.03;5.15;;;;;;;6.29;76.62;102855.38;1798316;79;21096;-79
2022/01/24 09:55:54;;;;;;;6.83;4.78;;;;;;;6.31;76.45;102845.98;1811035;79;21057;-79
2022/01/24 09:58:21;;;;;;;7.58;5.40;;;;;;;6.31;76.27;102846.88;1811168;79;21058;-79
2022/01/24 10:00:48;;;;;;;7.25;4.95;;;;;;;6.28;76.24;102853.17;1811213;79;22633;-79
2022/01/24 10:03:17;;;;;;;7.15;5.65;;;;;;;6.25;76.17;102853.34;1811034;79;21050;-79
2022/01/24 10:05:43;;;;;;;10.45;8.20;;;;;;;6.26;76.26;102857.38;1811601;78;21046;-78
2022/01/24 10:08:14;;;;;;;11.60;9.53;;;;;;;6.29;76.20;102849.78;1758368;79;21178;-79
2022/01/24 10:10:54;;;;;;;10.98;7.65;;;;;;;6.26;76.03;102852.15;1811696;79;21077;-79
2022/01/24 10:16:30;;;;;;;11.33;7.50;;;;;;;6.26;76.09;102848.23;1811298;79;21556;-78
2022/01/24 10:19:21;;;;;;;8.48;6.30;;;;;;;6.29;76.18;102851.09;1811489;79;21077;-79
2022/01/24 10:21:52;;;;;;;10.60;8.40;;;;;;;6.38;76.27;102850.86;1811550;79;21574;-78
2022/01/24 10:24:42;;;;;;;10.15;7.45;;;;;;;6.46;76.15;102844.89;1810968;79;21053;-78
2022/01/24 10:27:18;;;;;;;7.58;6.60;;;;;;;6.52;76.13;102846.69;1811187;79;21924;-78
2022/01/24 10:29:56;;;;;;;7.12;4.78;;;;;;;6.59;76.04;102839.81;1811084;79;21085;-78
2022/01/24 10:32:48;;;;;;;5.42;4.22;;;;;;;6.63;75.89;102844.88;1811314;79;21057;-78
2022/01/24 10:35:30;;;;;;;6.05;4.17;;;;;;;6.68;75.83;102837.88;1810384;77;21112;-78
2022/01/24 10:41:11;;;;;;;6.42;4.87;;;;;;;6.74;75.61;102836.12;1811165;79;21481;-79
2022/01/24 10:43:38;;;;;;;8.78;5.05;;;;;;;6.76;75.46;102831.91;1810815;77;21540;-79
2022/01/24 10:46:04;;;;;;;5.62;4.75;;;;;;;6.77;75.41;102833.30;1811711;79;21038;-78
2022/01/24 10:48:39;;;;;;;6.65;5.05;;;;;;;6.77;75.31;102831.98;1811204;79;21061;-78
2022/01/24 10:51:15;;;;;;;6.70;5.10;;;;;;;6.81;75.42;102827.52;1811926;79;21476;-78
2022/01/24 10:53:49;;;;;;;5.03;4.33;;;;;;;6.89;75.47;102829.77;1811430;79;22032;-78
2022/01/24 10:56:41;;;;;;;6.45;4.78;;;;;;;6.94;75.35;102825.38;1810217;79;21519;-78
2022/01/24 10:59:22;;;;;;;5.78;4.60;;;;;;;6.98;75.19;102826.51;1810574;79;21078;-79
2022/01/24 11:01:56;;;;;;;6.15;5.03;;;;;;;6.97;75.08;102826.92;1811360;79;21057;-77
2022/01/24 11:04:32;;;;;;;7.97;4.80;;;;;;;7.01;75.11;102819.79;1811243;78;21062;-79
2022/01/24 11:07:02;;;;;;;4.90;4.10;;;;;;;7.07;75.09;102814.09;1810303;79;21866;-79
2022/01/24 11:09:37;;;;;;;4.45;3.62;;;;;;;7.13;75.10;102819.80;1811206;79;21061;-79
2022/01/24 11:12:11;;;;;;;4.87;3.67;;;;;;;7.18;74.97;102807.91;1811151;79;21171;-79
2022/01/24 11:14:42;;;;;;;3.95;3.25;;;;;;;7.16;74.74;102805.59;1811308;79;21066;-78
2022/01/24 11:17:13;;;;;;;4.12;3.25;;;;;;;7.14;74.71;102801.05;1811146;79;21049;-79
2022/01/24 11:19:47;;;;;;;4.40;3.42;;;;;;;7.13;74.67;102797.53;1811527;79;21755;-79
2022/01/24 11:22:20;;;;;;;4.92;4.00;;;;;;;7.16;74.82;102792.49;1810607;78;21140;-79
2022/01/24 11:24:56;;;;;;;9.15;7.05;;;;;;;7.18;74.68;102791.30;1811354;79;21120;-79
2022/01/24 11:27:19;;;;;;;13.60;9.50;;;;;;;7.20;74.61;102789.70;1808785;79;21065;-79
2022/01/24 11:29:49;;;;;;;26.00;20.75;;;;;;;7.18;74.49;102796.13;1811583;79;21146;-79
2022/01/24 11:32:30;;;;;;;25.20;20.37;;;;;;;7.17;74.51;102793.39;1811322;79;21733;-79
2022/01/24 11:34:57;;;;;;;7.60;6.78;;;;;;;7.23;74.59;102789.02;1811422;79;21047;-78
2022/01/24 11:37:46;;;;;;;5.85;4.78;;;;;;;7.26;74.51;102782.67;1811332;79;21121;-78
2022/01/24 11:40:23;;;;;;;5.90;4.75;;;;;;;7.25;74.52;102780.46;1811321;79;21038;-79
2022/01/24 11:42:50;;;;;;;6.15;5.05;;;;;;;7.26;74.40;102777.02;1811786;79;21531;-79
2022/01/24 11:45:24;;;;;;;6.40;3.92;;;;;;;7.23;74.27;102774.63;1811492;79;21828;-78
2022/01/24 11:47:50;;;;;;;8.25;7.42;;;;;;;7.18;74.41;102766.42;1783031;79;21056;-78
2022/01/24 11:50:31;;;;;;;6.87;5.80;;;;;;;7.18;74.41;102766.42;1811475;79;21050;-78
2022/01/24 11:52:58;;;;;;;9.13;6.50;;;;;;;7.27;74.54;102767.48;1809737;77;21489;-78
2022/01/24 11:55:35;;;;;;;9.48;5.22;;;;;;;7.36;74.64;102768.13;1797358;78;21733;-78
2022/01/24 11:58:04;;;;;;;8.25;7.40;;;;;;;7.43;74.53;102763.80;1794189;79;21812;-78
2022/01/24 12:00:42;;;;;;;9.10;6.25;;;;;;;7.46;74.41;102757.89;1794509;79;21089;-78
2022/01/24 12:03:23;;;;;;;8.65;6.08;;;;;;;7.48;74.22;102758.91;1793222;78;21539;-78
2022/01/24 12:05:53;;;;;;;8.45;5.22;;;;;;;7.41;73.93;102761.48;1794686;79;21724;-78
2022/01/24 12:08:41;;;;;;;6.90;4.75;;;;;;;7.32;73.84;102764.38;1793747;79;21515;-78
2022/01/24 12:11:18;;;;;;;6.08;4.67;;;;;;;7.19;73.78;102759.98;1794599;79;21714;-78
2022/01/24 12:14:01;;;;;;;6.35;4.37;;;;;;;7.03;73.83;102760.09;1794545;79;22096;-78
2022/01/24 12:16:22;;;;;;;7.08;4.58;;;;;;;6.97;73.86;102763.18;1794398;79;21087;-79
2022/01/24 12:18:51;;;;;;;7.58;6.30;;;;;;;6.90;74.05;102762.22;1794684;79;21013;-79
2022/01/24 12:21:24;;;;;;;10.18;6.22;;;;;;;6.86;74.18;102753.64;1795243;79;21044;-78
2022/01/24 12:24:01;;;;;;;9.38;5.25;;;;;;;6.81;74.25;102760.77;1794778;79;22622;-77
2022/01/24 12:26:32;;;;;;;6.28;4.97;;;;;;;6.81;74.39;102763.39;1794334;79;21049;-79
2022/01/24 12:29:09;;;;;;;5.30;4.25;;;;;;;6.78;74.35;102764.46;1794106;78;21519;-78
2022/01/24 12:31:42;;;;;;;6.08;4.65;;;;;;;6.71;74.24;102762.59;1794389;79;21578;-79
2022/01/24 12:34:20;;;;;;;;;;;;;;;6.61;74.14;102759.30;1797218;79;21033;-78
2022/01/24 12:37:00;;;;;;;5.78;4.40;;;;;;;6.50;74.17;102748.45;1794482;79;21767;-79
2022/01/24 12:39:45;;;;;;;4.67;4.00;;;;;;;6.38;74.17;102747.16;1794375;79;21037;-78
2022/01/24 12:42:15;;;;;;;6.80;4.05;;;;;;;6.25;74.34;102745.73;1794258;79;21045;-78
2022/01/24 12:47:17;;;;;;;6.37;4.15;;;;;;;6.07;74.56;102743.95;1795009;79;21033;-78
2022/01/24 12:49:46;;;;;;;6.55;4.33;;;;;;;5.99;74.67;102744.69;1795060;79;21993;-80
2022/01/24 12:52:15;;;;;;;6.72;4.92;;;;;;;5.92;74.77;102746.69;1794588;79;21049;-79
2022/01/24 12:54:44;;;;;;;7.17;5.00;;;;;;;5.84;74.89;102748.31;1794517;78;21016;-79
2022/01/24 12:57:16;;;;;;;6.60;4.72;;;;;;;5.80;75.03;102750.56;1795047;79;21045;-79
2022/01/24 12:59:56;;;;;;;7.03;4.53;;;;;;;5.76;75.08;102748.51;1794242;79;21013;-80
2022/01/24 13:02:31;;;;;;;5.85;4.60;;;;;;;5.73;75.19;102741.77;1793659;79;21546;-79
2022/01/24 13:05:10;;;;;;;8.33;4.95;;;;;;;5.68;75.28;102742.70;1794897;79;21523;-79
2022/01/24 13:07:38;;;;;;;7.62;5.40;;;;;;;5.63;75.33;102737.51;1758677;80;21060;-79
2022/01/24 13:10:11;;;;;;;5.72;4.60;;;;;;;5.61;75.47;102746.56;1760668;81;21678;-79
2022/01/24 13:12:38;;;;;;;6.45;4.72;;;;;;;5.62;75.64;102746.16;1761009;80;21044;-79
2022/01/24 13:15:08;;;;;;;8.18;6.37;;;;;;;5.60;75.68;102744.72;1760721;81;21830;-79
2022/01/24 13:23:10;;;;;;;7.35;5.25;;;;;;;5.68;75.98;102744.41;1760675;81;21199;-79
2022/01/24 13:25:39;;;;;;;7.35;5.75;;;;;;;5.71;76.06;102744.25;1760669;81;21672;-79
2022/01/24 13:28:08;;;;;;;7.78;5.53;;;;;;;5.77;76.17;102742.50;1761076;81;21752;-79